LHA8454 HECA-LMML
Flight info
| Callsign | LHA8454 |
|---|---|
| Flight time | 2h 26m |
| Altitude | 36000 |
| Route | CVO L617 SOBAX M872 METRU UP868 ARLOS DCT GODAK M980 GZO |
| Aircraft | A339/H-SDE1E2FGHIJ4RWXYZ/S |
Departure
| Time | 2026-04-27 10:46 |
|---|---|
| Airport | Cairo International Airport (HECA) |
Arrival
| Time | 2026-04-27 13:13 |
|---|---|
| Airport | Malta International Airport (LMML) |
| Time | Latitude | Longitude | Altitude | Speed | Heading |
|---|---|---|---|---|---|
| 2026-04-27 10:06 | 30.10791 | 31.39884 | 354 ft | 0 kts | 74° |
| 2026-04-27 10:32 | 30.10790 | 31.39879 | 390 ft | 2 kts | 75° |
| 2026-04-27 10:32 | 30.10785 | 31.39858 | 357 ft | 3 kts | 88° |
| 2026-04-27 10:32 | 30.10784 | 31.39836 | 360 ft | 3 kts | 105° |
| 2026-04-27 10:33 | 30.10789 | 31.39815 | 361 ft | 3 kts | 124° |
| 2026-04-27 10:33 | 30.10800 | 31.39797 | 360 ft | 3 kts | 142° |
| 2026-04-27 10:33 | 30.10815 | 31.39783 | 359 ft | 3 kts | 156° |
| 2026-04-27 10:33 | 30.10831 | 31.39776 | 358 ft | 1 kts | 165° |
| 2026-04-27 10:34 | 30.10833 | 31.39775 | 358 ft | 0 kts | 165° |
| 2026-04-27 10:37 | 30.10832 | 31.39775 | 358 ft | 1 kts | 167° |
| 2026-04-27 10:37 | 30.10813 | 31.39774 | 349 ft | 6 kts | 178° |
| 2026-04-27 10:37 | 30.10758 | 31.39790 | 360 ft | 9 kts | 166° |
| 2026-04-27 10:37 | 30.10729 | 31.39798 | 362 ft | 3 kts | 165° |
| 2026-04-27 10:38 | 30.10683 | 31.39812 | 360 ft | 10 kts | 165° |
| 2026-04-27 10:38 | 30.10623 | 31.39830 | 362 ft | 9 kts | 165° |
| 2026-04-27 10:38 | 30.10539 | 31.39857 | 370 ft | 13 kts | 165° |
| 2026-04-27 10:38 | 30.10493 | 31.39917 | 375 ft | 9 kts | 108° |
| 2026-04-27 10:39 | 30.10500 | 31.39979 | 375 ft | 7 kts | 64° |
| 2026-04-27 10:39 | 30.10546 | 31.40037 | 372 ft | 12 kts | 49° |
| 2026-04-27 10:39 | 30.10609 | 31.40123 | 372 ft | 16 kts | 50° |
| 2026-04-27 10:39 | 30.10690 | 31.40231 | 374 ft | 19 kts | 48° |
| 2026-04-27 10:40 | 30.10777 | 31.40348 | 374 ft | 19 kts | 48° |
| 2026-04-27 10:40 | 30.10870 | 31.40467 | 375 ft | 20 kts | 49° |
| 2026-04-27 10:40 | 30.10961 | 31.40588 | 371 ft | 19 kts | 49° |
| 2026-04-27 10:40 | 30.11030 | 31.40681 | 375 ft | 8 kts | 49° |
| 2026-04-27 10:41 | 30.11053 | 31.40711 | 376 ft | 1 kts | 49° |
| 2026-04-27 10:41 | 30.11064 | 31.40726 | 373 ft | 3 kts | 49° |
| 2026-04-27 10:41 | 30.11080 | 31.40755 | 376 ft | 5 kts | 64° |
| 2026-04-27 10:41 | 30.11062 | 31.40836 | 377 ft | 11 kts | 112° |
| 2026-04-27 10:42 | 30.11121 | 31.40957 | 376 ft | 28 kts | 50° |
| 2026-04-27 10:42 | 30.11252 | 31.41134 | 378 ft | 29 kts | 48° |
| 2026-04-27 10:42 | 30.11386 | 31.41312 | 378 ft | 29 kts | 50° |
| 2026-04-27 10:42 | 30.11517 | 31.41489 | 376 ft | 29 kts | 50° |
| 2026-04-27 10:43 | 30.11650 | 31.41665 | 379 ft | 29 kts | 49° |
| 2026-04-27 10:43 | 30.11781 | 31.41842 | 377 ft | 29 kts | 49° |
| 2026-04-27 10:43 | 30.11913 | 31.42016 | 375 ft | 29 kts | 48° |
| 2026-04-27 10:43 | 30.12044 | 31.42192 | 379 ft | 30 kts | 49° |
| 2026-04-27 10:44 | 30.12193 | 31.42392 | 373 ft | 35 kts | 50° |
| 2026-04-27 10:44 | 30.12351 | 31.42602 | 377 ft | 34 kts | 47° |
| 2026-04-27 10:44 | 30.12469 | 31.42777 | 375 ft | 21 kts | 70° |
| 2026-04-27 10:44 | 30.12436 | 31.42901 | 380 ft | 13 kts | 136° |
| 2026-04-27 10:45 | 30.12367 | 31.42925 | 384 ft | 9 kts | 172° |
| 2026-04-27 10:45 | 30.12313 | 31.42923 | 385 ft | 7 kts | 200° |
| 2026-04-27 10:45 | 30.12272 | 31.42884 | 385 ft | 8 kts | 224° |
| 2026-04-27 10:45 | 30.12234 | 31.42838 | 386 ft | 8 kts | 226° |
| 2026-04-27 10:46 | 30.12074 | 31.42623 | 387 ft | 77 kts | 229° |
| 2026-04-27 10:46 | 30.11543 | 31.41920 | 389 ft | 152 kts | 229° |
| 2026-04-27 10:46 | 30.10725 | 31.40867 | 576 ft | 192 kts | 230° |
| 2026-04-27 10:46 | 30.09748 | 31.39693 | 1134 ft | 213 kts | 228° |
| 2026-04-27 10:47 | 30.08659 | 31.38448 | 1793 ft | 227 kts | 226° |
| 2026-04-27 10:47 | 30.07445 | 31.37211 | 2520 ft | 239 kts | 222° |
| 2026-04-27 10:47 | 30.06138 | 31.35991 | 3248 ft | 243 kts | 226° |
| 2026-04-27 10:47 | 30.05074 | 31.34492 | 4040 ft | 242 kts | 235° |
| 2026-04-27 10:48 | 30.04021 | 31.32902 | 4489 ft | 254 kts | 234° |
| 2026-04-27 10:48 | 30.02946 | 31.31277 | 5166 ft | 258 kts | 234° |
| 2026-04-27 10:48 | 30.02034 | 31.29515 | 5881 ft | 255 kts | 251° |
| 2026-04-27 10:48 | 30.01840 | 31.27490 | 6578 ft | 260 kts | 275° |
| 2026-04-27 10:49 | 30.02469 | 31.25518 | 7294 ft | 268 kts | 300° |
| 2026-04-27 10:49 | 30.03792 | 31.23972 | 8054 ft | 277 kts | 318° |
| 2026-04-27 10:49 | 30.05388 | 31.22741 | 8743 ft | 282 kts | 323° |
| 2026-04-27 10:49 | 30.07067 | 31.21533 | 9401 ft | 286 kts | 322° |
| 2026-04-27 10:50 | 30.08728 | 31.20256 | 10075 ft | 287 kts | 320° |
| 2026-04-27 10:50 | 30.10387 | 31.18881 | 10401 ft | 303 kts | 318° |
| 2026-04-27 10:50 | 30.12127 | 31.17362 | 10590 ft | 324 kts | 317° |
| 2026-04-27 10:50 | 30.13954 | 31.15735 | 10920 ft | 336 kts | 317° |
| 2026-04-27 10:51 | 30.15810 | 31.14076 | 11541 ft | 338 kts | 317° |
| 2026-04-27 10:51 | 30.17682 | 31.12412 | 12145 ft | 341 kts | 318° |
| 2026-04-27 10:51 | 30.19571 | 31.10737 | 12725 ft | 344 kts | 318° |
| 2026-04-27 10:51 | 30.21475 | 31.09046 | 13338 ft | 346 kts | 318° |
| 2026-04-27 10:52 | 30.23375 | 31.07353 | 13941 ft | 348 kts | 318° |
| 2026-04-27 10:52 | 30.25313 | 31.05629 | 14517 ft | 350 kts | 318° |
| 2026-04-27 10:52 | 30.27250 | 31.03906 | 15038 ft | 352 kts | 318° |
| 2026-04-27 10:52 | 30.29195 | 31.02176 | 15597 ft | 354 kts | 318° |
| 2026-04-27 10:53 | 30.31155 | 31.00428 | 16133 ft | 357 kts | 318° |
| 2026-04-27 10:53 | 30.35111 | 30.96899 | 17196 ft | 361 kts | 318° |
| 2026-04-27 10:53 | 30.37106 | 30.95118 | 17747 ft | 363 kts | 318° |
| 2026-04-27 10:54 | 30.38973 | 30.93450 | 18236 ft | 366 kts | 318° |
| 2026-04-27 10:54 | 30.40994 | 30.91646 | 18716 ft | 368 kts | 318° |
| 2026-04-27 10:54 | 30.43030 | 30.89829 | 19184 ft | 370 kts | 317° |
| 2026-04-27 10:54 | 30.45074 | 30.88004 | 19672 ft | 372 kts | 317° |
| 2026-04-27 10:55 | 30.47133 | 30.86162 | 20154 ft | 375 kts | 317° |
| 2026-04-27 10:55 | 30.49203 | 30.84308 | 20618 ft | 378 kts | 317° |
| 2026-04-27 10:55 | 30.51291 | 30.82438 | 21097 ft | 381 kts | 317° |
| 2026-04-27 10:55 | 30.53392 | 30.80556 | 21574 ft | 383 kts | 317° |
| 2026-04-27 10:56 | 30.55512 | 30.78656 | 22036 ft | 386 kts | 317° |
| 2026-04-27 10:56 | 30.57644 | 30.76744 | 22516 ft | 389 kts | 317° |
| 2026-04-27 10:56 | 30.59798 | 30.74811 | 22966 ft | 393 kts | 317° |
| 2026-04-27 10:56 | 30.61965 | 30.72864 | 23443 ft | 396 kts | 317° |
| 2026-04-27 10:57 | 30.64150 | 30.70902 | 23863 ft | 398 kts | 317° |
| 2026-04-27 10:57 | 30.66344 | 30.68932 | 24326 ft | 399 kts | 316° |
| 2026-04-27 10:57 | 30.68516 | 30.66981 | 24747 ft | 401 kts | 316° |
| 2026-04-27 10:57 | 30.70724 | 30.64995 | 25183 ft | 402 kts | 316° |
| 2026-04-27 10:58 | 30.72938 | 30.63001 | 25621 ft | 403 kts | 316° |
| 2026-04-27 10:58 | 30.75189 | 30.60973 | 26053 ft | 405 kts | 315° |
| 2026-04-27 10:58 | 30.77424 | 30.58959 | 26470 ft | 407 kts | 315° |
| 2026-04-27 10:58 | 30.79632 | 30.56966 | 26889 ft | 408 kts | 315° |
| 2026-04-27 10:59 | 30.81912 | 30.54908 | 27300 ft | 410 kts | 315° |
| 2026-04-27 10:59 | 30.84138 | 30.52898 | 27712 ft | 412 kts | 314° |
| 2026-04-27 10:59 | 30.86405 | 30.50850 | 28101 ft | 414 kts | 314° |
| 2026-04-27 11:00 | 30.90964 | 30.46726 | 28899 ft | 417 kts | 314° |
| 2026-04-27 11:00 | 30.93258 | 30.44648 | 29153 ft | 418 kts | 314° |
| 2026-04-27 11:00 | 30.95555 | 30.42560 | 29660 ft | 420 kts | 314° |
| 2026-04-27 11:00 | 30.97864 | 30.40467 | 30031 ft | 422 kts | 314° |
| 2026-04-27 11:01 | 31.00188 | 30.38362 | 30347 ft | 424 kts | 314° |
| 2026-04-27 11:01 | 31.02519 | 30.36247 | 30652 ft | 426 kts | 314° |
| 2026-04-27 11:01 | 31.04103 | 30.34809 | 30864 ft | 428 kts | 314° |
| 2026-04-27 11:01 | 31.06376 | 30.32645 | 31149 ft | 425 kts | 309° |
| 2026-04-27 11:02 | 31.08319 | 30.30102 | 31446 ft | 417 kts | 300° |
| 2026-04-27 11:02 | 31.09828 | 30.27243 | 31741 ft | 412 kts | 291° |
| 2026-04-27 11:02 | 31.10884 | 30.24163 | 32020 ft | 408 kts | 283° |
| 2026-04-27 11:02 | 31.11716 | 30.20985 | 32296 ft | 410 kts | 283° |
| 2026-04-27 11:03 | 31.12572 | 30.17801 | 32573 ft | 413 kts | 283° |
| 2026-04-27 11:03 | 31.13445 | 30.14600 | 32813 ft | 415 kts | 283° |
| 2026-04-27 11:03 | 31.14323 | 30.11389 | 33014 ft | 417 kts | 284° |
| 2026-04-27 11:03 | 31.15205 | 30.08156 | 33216 ft | 418 kts | 284° |
| 2026-04-27 11:04 | 31.16088 | 30.04917 | 33400 ft | 420 kts | 284° |
| 2026-04-27 11:04 | 31.16973 | 30.01663 | 33574 ft | 421 kts | 284° |
| 2026-04-27 11:04 | 31.17916 | 29.98424 | 33748 ft | 423 kts | 287° |
| 2026-04-27 11:04 | 31.19122 | 29.95280 | 33961 ft | 426 kts | 292° |
| 2026-04-27 11:05 | 31.20589 | 29.92261 | 34161 ft | 429 kts | 297° |
| 2026-04-27 11:05 | 31.22296 | 29.89395 | 34354 ft | 431 kts | 301° |
| 2026-04-27 11:05 | 31.24081 | 29.86578 | 34519 ft | 431 kts | 301° |
| 2026-04-27 11:05 | 31.25848 | 29.83756 | 34703 ft | 430 kts | 300° |
| 2026-04-27 11:06 | 31.27611 | 29.80928 | 34867 ft | 430 kts | 300° |
| 2026-04-27 11:06 | 31.29369 | 29.78103 | 35050 ft | 430 kts | 300° |
| 2026-04-27 11:06 | 31.31128 | 29.75276 | 35220 ft | 430 kts | 300° |
| 2026-04-27 11:06 | 31.32863 | 29.72489 | 35385 ft | 429 kts | 301° |
| 2026-04-27 11:07 | 31.34618 | 29.69668 | 35573 ft | 429 kts | 300° |
| 2026-04-27 11:07 | 31.36372 | 29.66846 | 35742 ft | 429 kts | 300° |
| 2026-04-27 11:07 | 31.38125 | 29.64023 | 35901 ft | 429 kts | 301° |
| 2026-04-27 11:07 | 31.39879 | 29.61199 | 36021 ft | 429 kts | 301° |
| 2026-04-27 11:08 | 31.43375 | 29.55562 | 36039 ft | 427 kts | 301° |
| 2026-04-27 11:08 | 31.46866 | 29.49923 | 36035 ft | 428 kts | 301° |
| 2026-04-27 11:09 | 31.50355 | 29.44279 | 36038 ft | 428 kts | 301° |
| 2026-04-27 11:09 | 31.53846 | 29.38624 | 36036 ft | 428 kts | 301° |
| 2026-04-27 11:10 | 31.57338 | 29.32961 | 36034 ft | 428 kts | 301° |
| 2026-04-27 11:10 | 31.60826 | 29.27289 | 36033 ft | 429 kts | 301° |
| 2026-04-27 11:11 | 31.64308 | 29.21604 | 36028 ft | 429 kts | 301° |
| 2026-04-27 11:11 | 31.67794 | 29.15907 | 36021 ft | 430 kts | 301° |
| 2026-04-27 11:12 | 31.71283 | 29.10197 | 36026 ft | 431 kts | 301° |
| 2026-04-27 11:12 | 31.74775 | 29.04474 | 36037 ft | 431 kts | 301° |
| 2026-04-27 11:13 | 31.78270 | 28.98740 | 36030 ft | 432 kts | 301° |
| 2026-04-27 11:13 | 31.81771 | 28.92991 | 36030 ft | 432 kts | 301° |
| 2026-04-27 11:14 | 31.85272 | 28.87234 | 36035 ft | 433 kts | 301° |
| 2026-04-27 11:14 | 31.88773 | 28.81465 | 36036 ft | 433 kts | 301° |
| 2026-04-27 11:15 | 31.92273 | 28.75690 | 36037 ft | 434 kts | 301° |
| 2026-04-27 11:15 | 31.95776 | 28.69902 | 36040 ft | 434 kts | 301° |
| 2026-04-27 11:16 | 31.99276 | 28.64108 | 36039 ft | 434 kts | 301° |
| 2026-04-27 11:16 | 32.02752 | 28.58347 | 36044 ft | 434 kts | 301° |
| 2026-04-27 11:17 | 32.06251 | 28.52539 | 36041 ft | 435 kts | 302° |
| 2026-04-27 11:17 | 32.09748 | 28.46724 | 36047 ft | 435 kts | 302° |
| 2026-04-27 11:18 | 32.13244 | 28.40903 | 36049 ft | 435 kts | 302° |
| 2026-04-27 11:18 | 32.16737 | 28.35077 | 36048 ft | 435 kts | 302° |
| 2026-04-27 11:19 | 32.20228 | 28.29246 | 36046 ft | 435 kts | 302° |
| 2026-04-27 11:19 | 32.23721 | 28.23404 | 36047 ft | 435 kts | 302° |
| 2026-04-27 11:20 | 32.27210 | 28.17559 | 36046 ft | 436 kts | 302° |
| 2026-04-27 11:20 | 32.30699 | 28.11705 | 36053 ft | 436 kts | 302° |
| 2026-04-27 11:21 | 32.34181 | 28.05843 | 35965 ft | 434 kts | 303° |
| 2026-04-27 11:21 | 32.37646 | 28.00002 | 36055 ft | 433 kts | 303° |
| 2026-04-27 11:22 | 32.41111 | 27.94163 | 36054 ft | 433 kts | 303° |
| 2026-04-27 11:22 | 32.44550 | 27.88360 | 36052 ft | 434 kts | 303° |
| 2026-04-27 11:23 | 32.48007 | 27.82513 | 36056 ft | 434 kts | 303° |
| 2026-04-27 11:23 | 32.51464 | 27.76659 | 36055 ft | 434 kts | 303° |
| 2026-04-27 11:24 | 32.54919 | 27.70799 | 36058 ft | 434 kts | 303° |
| 2026-04-27 11:24 | 32.58373 | 27.64932 | 36063 ft | 434 kts | 303° |
| 2026-04-27 11:25 | 32.61822 | 27.59064 | 36065 ft | 434 kts | 303° |
| 2026-04-27 11:25 | 32.65268 | 27.53193 | 36067 ft | 433 kts | 303° |
| 2026-04-27 11:26 | 32.68711 | 27.47319 | 36068 ft | 433 kts | 303° |
| 2026-04-27 11:26 | 32.72149 | 27.41447 | 36068 ft | 433 kts | 303° |
| 2026-04-27 11:27 | 32.75574 | 27.35566 | 36067 ft | 433 kts | 303° |
| 2026-04-27 11:27 | 32.78994 | 27.29683 | 36068 ft | 432 kts | 303° |
| 2026-04-27 11:28 | 32.82411 | 27.23800 | 36069 ft | 432 kts | 303° |
| 2026-04-27 11:28 | 32.85822 | 27.17918 | 36073 ft | 432 kts | 303° |
| 2026-04-27 11:29 | 32.89230 | 27.12033 | 36068 ft | 432 kts | 303° |
| 2026-04-27 11:29 | 32.92632 | 27.06149 | 36072 ft | 431 kts | 303° |
| 2026-04-27 11:30 | 32.96029 | 27.00264 | 36068 ft | 431 kts | 303° |
| 2026-04-27 11:30 | 32.99417 | 26.94380 | 36070 ft | 431 kts | 303° |
| 2026-04-27 11:31 | 33.02797 | 26.88489 | 36072 ft | 430 kts | 303° |
| 2026-04-27 11:31 | 33.06150 | 26.82641 | 36073 ft | 430 kts | 303° |
| 2026-04-27 11:32 | 33.09519 | 26.76755 | 36077 ft | 430 kts | 303° |
| 2026-04-27 11:32 | 33.12884 | 26.70866 | 36070 ft | 429 kts | 303° |
| 2026-04-27 11:33 | 33.16241 | 26.64980 | 36075 ft | 429 kts | 303° |
| 2026-04-27 11:33 | 33.19596 | 26.59091 | 36074 ft | 429 kts | 303° |
| 2026-04-27 11:34 | 33.22943 | 26.53205 | 36071 ft | 428 kts | 303° |
| 2026-04-27 11:34 | 33.26284 | 26.47320 | 36076 ft | 428 kts | 303° |
| 2026-04-27 11:35 | 33.29619 | 26.41437 | 36077 ft | 427 kts | 303° |
| 2026-04-27 11:35 | 33.32946 | 26.35557 | 36074 ft | 427 kts | 303° |
| 2026-04-27 11:36 | 33.36271 | 26.29674 | 36077 ft | 427 kts | 303° |
| 2026-04-27 11:36 | 33.39588 | 26.23794 | 36075 ft | 426 kts | 303° |
| 2026-04-27 11:37 | 33.42901 | 26.17911 | 36076 ft | 426 kts | 303° |
| 2026-04-27 11:37 | 33.46210 | 26.12027 | 36080 ft | 426 kts | 303° |
| 2026-04-27 11:38 | 33.49513 | 26.06143 | 36076 ft | 426 kts | 303° |
| 2026-04-27 11:38 | 33.52811 | 26.00258 | 36075 ft | 425 kts | 303° |
| 2026-04-27 11:39 | 33.56105 | 25.94372 | 36077 ft | 425 kts | 303° |
| 2026-04-27 11:39 | 33.59395 | 25.88485 | 36077 ft | 425 kts | 303° |
| 2026-04-27 11:40 | 33.62682 | 25.82592 | 36073 ft | 425 kts | 303° |
| 2026-04-27 11:40 | 33.65963 | 25.76700 | 36079 ft | 425 kts | 303° |
| 2026-04-27 11:41 | 33.69240 | 25.70807 | 36083 ft | 424 kts | 303° |
| 2026-04-27 11:41 | 33.72514 | 25.64909 | 36081 ft | 424 kts | 303° |
| 2026-04-27 11:42 | 33.75782 | 25.59012 | 36075 ft | 424 kts | 302° |
| 2026-04-27 11:42 | 33.79046 | 25.53114 | 36078 ft | 424 kts | 302° |
| 2026-04-27 11:43 | 33.82283 | 25.47254 | 36083 ft | 423 kts | 302° |
| 2026-04-27 11:43 | 33.85537 | 25.41353 | 36084 ft | 423 kts | 302° |
| 2026-04-27 11:44 | 33.88786 | 25.35452 | 36085 ft | 423 kts | 302° |
| 2026-04-27 11:44 | 33.92032 | 25.29549 | 36083 ft | 423 kts | 302° |
| 2026-04-27 11:45 | 33.94750 | 25.24597 | 36091 ft | 423 kts | 302° |
| 2026-04-27 11:45 | 33.98486 | 25.17708 | 36078 ft | 422 kts | 300° |
| 2026-04-27 11:46 | 34.01102 | 25.11335 | 36082 ft | 422 kts | 292° |
| 2026-04-27 11:46 | 34.03094 | 25.04686 | 36083 ft | 422 kts | 290° |
| 2026-04-27 11:47 | 34.05086 | 24.98086 | 36087 ft | 422 kts | 290° |
| 2026-04-27 11:47 | 34.07086 | 24.91439 | 36090 ft | 422 kts | 290° |
| 2026-04-27 11:48 | 34.09075 | 24.84789 | 36089 ft | 421 kts | 290° |
| 2026-04-27 11:48 | 34.11060 | 24.78136 | 36085 ft | 421 kts | 290° |
| 2026-04-27 11:49 | 34.13040 | 24.71483 | 36090 ft | 421 kts | 290° |
| 2026-04-27 11:49 | 34.15018 | 24.64823 | 36093 ft | 421 kts | 290° |
| 2026-04-27 11:50 | 34.16990 | 24.58167 | 36096 ft | 421 kts | 290° |
| 2026-04-27 11:50 | 34.18959 | 24.51508 | 36085 ft | 421 kts | 290° |
| 2026-04-27 11:51 | 34.20592 | 24.45973 | 36097 ft | 421 kts | 290° |
| 2026-04-27 11:52 | 34.23534 | 24.35973 | 36092 ft | 421 kts | 290° |
| 2026-04-27 11:52 | 34.25490 | 24.29305 | 36100 ft | 421 kts | 290° |
| 2026-04-27 11:53 | 34.27442 | 24.22635 | 36100 ft | 421 kts | 290° |
| 2026-04-27 11:53 | 34.29393 | 24.15954 | 36095 ft | 421 kts | 289° |
| 2026-04-27 11:54 | 34.31339 | 24.09274 | 36095 ft | 421 kts | 289° |
| 2026-04-27 11:54 | 34.33283 | 24.02589 | 36094 ft | 421 kts | 289° |
| 2026-04-27 11:55 | 34.35222 | 23.95899 | 36099 ft | 421 kts | 289° |
| 2026-04-27 11:55 | 34.37159 | 23.89205 | 36101 ft | 421 kts | 289° |
| 2026-04-27 11:56 | 34.39092 | 23.82509 | 36105 ft | 421 kts | 289° |
| 2026-04-27 11:56 | 34.41021 | 23.75807 | 36108 ft | 422 kts | 289° |
| 2026-04-27 11:57 | 34.42948 | 23.69100 | 36105 ft | 422 kts | 289° |
| 2026-04-27 11:57 | 34.44860 | 23.62428 | 36105 ft | 422 kts | 289° |
| 2026-04-27 11:58 | 34.46793 | 23.55666 | 36112 ft | 422 kts | 289° |
| 2026-04-27 11:58 | 34.48698 | 23.48988 | 36108 ft | 422 kts | 289° |
| 2026-04-27 11:59 | 34.50613 | 23.42260 | 36116 ft | 422 kts | 289° |
| 2026-04-27 11:59 | 34.52524 | 23.35526 | 36115 ft | 422 kts | 289° |
| 2026-04-27 12:00 | 34.54432 | 23.28788 | 36113 ft | 422 kts | 289° |
| 2026-04-27 12:00 | 34.56338 | 23.22044 | 36117 ft | 422 kts | 289° |
| 2026-04-27 12:01 | 34.58238 | 23.15301 | 36121 ft | 422 kts | 289° |
| 2026-04-27 12:01 | 34.60135 | 23.08555 | 36115 ft | 423 kts | 289° |
| 2026-04-27 12:02 | 34.62024 | 23.01799 | 36111 ft | 423 kts | 287° |
| 2026-04-27 12:02 | 34.63400 | 22.94867 | 36119 ft | 423 kts | 281° |
| 2026-04-27 12:03 | 34.64558 | 22.87863 | 36123 ft | 423 kts | 282° |
| 2026-04-27 12:03 | 34.65740 | 22.80870 | 36125 ft | 423 kts | 282° |
| 2026-04-27 12:04 | 34.66918 | 22.73870 | 36125 ft | 423 kts | 282° |
| 2026-04-27 12:04 | 34.68091 | 22.66861 | 36129 ft | 423 kts | 282° |
| 2026-04-27 12:05 | 34.69260 | 22.59849 | 36129 ft | 423 kts | 282° |
| 2026-04-27 12:05 | 34.70423 | 22.52836 | 36130 ft | 423 kts | 282° |
| 2026-04-27 12:06 | 34.71581 | 22.45817 | 36129 ft | 424 kts | 282° |
| 2026-04-27 12:06 | 34.72735 | 22.38793 | 36134 ft | 424 kts | 281° |
| 2026-04-27 12:07 | 34.73885 | 22.31768 | 36132 ft | 424 kts | 281° |
| 2026-04-27 12:07 | 34.75032 | 22.24732 | 36133 ft | 424 kts | 281° |
| 2026-04-27 12:08 | 34.76167 | 22.17744 | 36135 ft | 424 kts | 281° |
| 2026-04-27 12:08 | 34.77306 | 22.10704 | 36134 ft | 424 kts | 281° |
| 2026-04-27 12:09 | 34.78442 | 22.03658 | 36135 ft | 425 kts | 281° |
| 2026-04-27 12:09 | 34.79574 | 21.96608 | 36139 ft | 425 kts | 281° |
| 2026-04-27 12:10 | 34.80703 | 21.89550 | 36137 ft | 425 kts | 281° |
| 2026-04-27 12:10 | 34.81828 | 21.82490 | 36136 ft | 425 kts | 281° |
| 2026-04-27 12:11 | 34.82950 | 21.75423 | 36137 ft | 425 kts | 281° |
| 2026-04-27 12:11 | 34.84067 | 21.68353 | 36139 ft | 425 kts | 281° |
| 2026-04-27 12:12 | 34.85182 | 21.61274 | 36140 ft | 426 kts | 281° |
| 2026-04-27 12:12 | 34.86292 | 21.54196 | 36141 ft | 426 kts | 281° |
| 2026-04-27 12:13 | 34.87398 | 21.47116 | 36140 ft | 426 kts | 281° |
| 2026-04-27 12:13 | 34.88501 | 21.40028 | 36144 ft | 426 kts | 281° |
| 2026-04-27 12:14 | 34.89600 | 21.32941 | 36144 ft | 426 kts | 281° |
| 2026-04-27 12:14 | 34.90695 | 21.25845 | 36145 ft | 426 kts | 281° |
| 2026-04-27 12:15 | 34.91786 | 21.18748 | 36147 ft | 426 kts | 281° |
| 2026-04-27 12:15 | 34.92873 | 21.11650 | 36144 ft | 426 kts | 281° |
| 2026-04-27 12:16 | 34.93955 | 21.04552 | 36149 ft | 426 kts | 281° |
| 2026-04-27 12:16 | 34.95034 | 20.97449 | 36148 ft | 426 kts | 281° |
| 2026-04-27 12:17 | 34.96109 | 20.90341 | 36145 ft | 426 kts | 280° |
| 2026-04-27 12:17 | 34.97179 | 20.83236 | 36147 ft | 426 kts | 280° |
| 2026-04-27 12:18 | 34.98246 | 20.76127 | 36147 ft | 426 kts | 280° |
| 2026-04-27 12:18 | 34.99308 | 20.69016 | 36153 ft | 426 kts | 280° |
| 2026-04-27 12:19 | 35.00367 | 20.61898 | 36150 ft | 426 kts | 280° |
| 2026-04-27 12:19 | 35.01421 | 20.54782 | 36149 ft | 426 kts | 280° |
| 2026-04-27 12:20 | 35.02471 | 20.47664 | 36153 ft | 426 kts | 280° |
| 2026-04-27 12:20 | 35.03510 | 20.40592 | 36151 ft | 427 kts | 280° |
| 2026-04-27 12:21 | 35.04552 | 20.33464 | 36152 ft | 427 kts | 280° |
| 2026-04-27 12:21 | 35.05591 | 20.26330 | 36150 ft | 427 kts | 280° |
| 2026-04-27 12:22 | 35.06626 | 20.19196 | 36149 ft | 427 kts | 279° |
| 2026-04-27 12:22 | 35.07657 | 20.12056 | 36150 ft | 427 kts | 279° |
| 2026-04-27 12:23 | 35.08684 | 20.04913 | 36154 ft | 427 kts | 279° |
| 2026-04-27 12:23 | 35.09708 | 19.97762 | 36153 ft | 428 kts | 279° |
| 2026-04-27 12:24 | 35.10728 | 19.90607 | 36154 ft | 428 kts | 279° |
| 2026-04-27 12:24 | 35.11743 | 19.83451 | 36153 ft | 428 kts | 279° |
| 2026-04-27 12:25 | 35.12755 | 19.76288 | 36157 ft | 428 kts | 279° |
| 2026-04-27 12:25 | 35.13763 | 19.69121 | 36158 ft | 428 kts | 279° |
| 2026-04-27 12:26 | 35.14768 | 19.61946 | 36158 ft | 428 kts | 279° |
| 2026-04-27 12:26 | 35.15769 | 19.54772 | 36161 ft | 428 kts | 279° |
| 2026-04-27 12:27 | 35.16765 | 19.47593 | 36159 ft | 429 kts | 279° |
| 2026-04-27 12:27 | 35.17758 | 19.40409 | 36159 ft | 429 kts | 279° |
| 2026-04-27 12:28 | 35.18746 | 19.33221 | 36159 ft | 429 kts | 279° |
| 2026-04-27 12:28 | 35.19731 | 19.26027 | 36160 ft | 429 kts | 279° |
| 2026-04-27 12:29 | 35.20712 | 19.18829 | 36162 ft | 429 kts | 279° |
| 2026-04-27 12:29 | 35.21689 | 19.11631 | 36161 ft | 429 kts | 279° |
| 2026-04-27 12:30 | 35.22662 | 19.04429 | 36163 ft | 429 kts | 279° |
| 2026-04-27 12:30 | 35.23631 | 18.97219 | 36166 ft | 429 kts | 279° |
| 2026-04-27 12:31 | 35.24589 | 18.90060 | 36165 ft | 429 kts | 279° |
| 2026-04-27 12:31 | 35.25550 | 18.82847 | 36163 ft | 429 kts | 279° |
| 2026-04-27 12:32 | 35.26506 | 18.75637 | 36163 ft | 429 kts | 279° |
| 2026-04-27 12:32 | 35.27458 | 18.68422 | 36164 ft | 429 kts | 279° |
| 2026-04-27 12:33 | 35.28405 | 18.61207 | 36164 ft | 429 kts | 279° |
| 2026-04-27 12:33 | 35.29348 | 18.53992 | 36164 ft | 429 kts | 279° |
| 2026-04-27 12:34 | 35.30287 | 18.46775 | 36164 ft | 429 kts | 278° |
| 2026-04-27 12:34 | 35.31221 | 18.39559 | 36160 ft | 429 kts | 278° |
| 2026-04-27 12:35 | 35.32150 | 18.32342 | 36159 ft | 429 kts | 278° |
| 2026-04-27 12:35 | 35.33076 | 18.25125 | 36160 ft | 429 kts | 278° |
| 2026-04-27 12:36 | 35.33996 | 18.17912 | 36162 ft | 429 kts | 278° |
| 2026-04-27 12:36 | 35.34912 | 18.10694 | 36165 ft | 429 kts | 278° |
| 2026-04-27 12:37 | 35.35823 | 18.03481 | 36165 ft | 429 kts | 278° |
| 2026-04-27 12:37 | 35.36730 | 17.96264 | 36163 ft | 429 kts | 278° |
| 2026-04-27 12:38 | 35.37481 | 17.90265 | 36161 ft | 428 kts | 278° |
| 2026-04-27 12:38 | 35.38380 | 17.83050 | 36162 ft | 428 kts | 278° |
| 2026-04-27 12:39 | 35.39275 | 17.75829 | 36163 ft | 428 kts | 278° |
| 2026-04-27 12:39 | 35.40164 | 17.68614 | 36163 ft | 428 kts | 278° |
| 2026-04-27 12:40 | 35.41050 | 17.61399 | 36164 ft | 428 kts | 278° |
| 2026-04-27 12:40 | 35.41931 | 17.54182 | 36163 ft | 428 kts | 278° |
| 2026-04-27 12:41 | 35.42807 | 17.46963 | 36164 ft | 428 kts | 278° |
| 2026-04-27 12:41 | 35.43679 | 17.39747 | 36160 ft | 428 kts | 278° |
| 2026-04-27 12:42 | 35.44546 | 17.32535 | 36161 ft | 428 kts | 278° |
| 2026-04-27 12:42 | 35.45408 | 17.25323 | 36160 ft | 427 kts | 278° |
| 2026-04-27 12:43 | 35.46266 | 17.18116 | 36158 ft | 427 kts | 278° |
| 2026-04-27 12:43 | 35.47120 | 17.10902 | 36157 ft | 427 kts | 278° |
| 2026-04-27 12:44 | 35.47968 | 17.03695 | 36158 ft | 427 kts | 278° |
| 2026-04-27 12:44 | 35.48812 | 16.96490 | 36155 ft | 427 kts | 278° |
| 2026-04-27 12:45 | 35.49651 | 16.89284 | 36157 ft | 426 kts | 278° |
| 2026-04-27 12:45 | 35.50479 | 16.82135 | 36158 ft | 426 kts | 278° |
| 2026-04-27 12:46 | 35.51309 | 16.74937 | 36157 ft | 426 kts | 278° |
| 2026-04-27 12:46 | 35.52133 | 16.67741 | 36156 ft | 426 kts | 277° |
| 2026-04-27 12:47 | 35.52954 | 16.60549 | 36155 ft | 425 kts | 277° |
| 2026-04-27 12:47 | 35.53769 | 16.53359 | 36153 ft | 425 kts | 277° |
| 2026-04-27 12:48 | 35.54579 | 16.46171 | 36152 ft | 425 kts | 277° |
| 2026-04-27 12:48 | 35.55386 | 16.38981 | 36153 ft | 425 kts | 277° |
| 2026-04-27 12:49 | 35.56187 | 16.31800 | 36150 ft | 425 kts | 277° |
| 2026-04-27 12:49 | 35.56983 | 16.24618 | 36153 ft | 424 kts | 277° |
| 2026-04-27 12:50 | 35.57776 | 16.17437 | 36149 ft | 424 kts | 277° |
| 2026-04-27 12:50 | 35.58563 | 16.10253 | 36150 ft | 424 kts | 277° |
| 2026-04-27 12:51 | 35.59346 | 16.03075 | 36124 ft | 424 kts | 277° |
| 2026-04-27 12:51 | 35.59750 | 15.99488 | 35876 ft | 424 kts | 279° |
| 2026-04-27 12:51 | 35.60546 | 15.96045 | 35407 ft | 426 kts | 291° |
| 2026-04-27 12:51 | 35.61921 | 15.92814 | 34944 ft | 428 kts | 298° |
| 2026-04-27 12:52 | 35.63471 | 15.89681 | 34467 ft | 429 kts | 299° |
| 2026-04-27 12:52 | 35.65046 | 15.86506 | 33966 ft | 430 kts | 299° |
| 2026-04-27 12:52 | 35.66585 | 15.83405 | 33430 ft | 430 kts | 299° |
| 2026-04-27 12:52 | 35.68145 | 15.80262 | 32898 ft | 431 kts | 299° |
| 2026-04-27 12:53 | 35.71279 | 15.73953 | 31870 ft | 433 kts | 299° |
| 2026-04-27 12:53 | 35.72852 | 15.70793 | 31369 ft | 432 kts | 299° |
| 2026-04-27 12:53 | 35.74418 | 15.67655 | 30867 ft | 428 kts | 299° |
| 2026-04-27 12:54 | 35.75976 | 15.64545 | 30405 ft | 424 kts | 299° |
| 2026-04-27 12:54 | 35.77520 | 15.61473 | 29858 ft | 420 kts | 299° |
| 2026-04-27 12:54 | 35.79052 | 15.58427 | 29307 ft | 416 kts | 299° |
| 2026-04-27 12:54 | 35.80570 | 15.55405 | 28765 ft | 414 kts | 299° |
| 2026-04-27 12:55 | 35.82042 | 15.52469 | 28245 ft | 412 kts | 299° |
| 2026-04-27 12:55 | 35.83529 | 15.49494 | 27724 ft | 409 kts | 299° |
| 2026-04-27 12:55 | 35.85013 | 15.46517 | 27164 ft | 407 kts | 299° |
| 2026-04-27 12:55 | 35.86490 | 15.43546 | 26539 ft | 406 kts | 299° |
| 2026-04-27 12:56 | 35.87952 | 15.40595 | 25928 ft | 402 kts | 299° |
| 2026-04-27 12:56 | 35.89396 | 15.37670 | 25328 ft | 397 kts | 299° |
| 2026-04-27 12:56 | 35.90822 | 15.34769 | 24737 ft | 394 kts | 299° |
| 2026-04-27 12:56 | 35.92239 | 15.31875 | 24154 ft | 394 kts | 299° |
| 2026-04-27 12:57 | 35.93642 | 15.28996 | 23557 ft | 390 kts | 299° |
| 2026-04-27 12:57 | 35.95028 | 15.26141 | 22883 ft | 387 kts | 299° |
| 2026-04-27 12:57 | 35.96399 | 15.23299 | 22226 ft | 384 kts | 299° |
| 2026-04-27 12:57 | 35.97755 | 15.20479 | 21604 ft | 379 kts | 299° |
| 2026-04-27 12:58 | 35.99082 | 15.17706 | 21421 ft | 375 kts | 299° |
| 2026-04-27 12:58 | 36.00419 | 15.14909 | 21281 ft | 380 kts | 298° |
| 2026-04-27 12:58 | 36.01759 | 15.12101 | 21156 ft | 379 kts | 299° |
| 2026-04-27 12:58 | 36.03096 | 15.09295 | 20811 ft | 379 kts | 299° |
| 2026-04-27 12:59 | 36.04427 | 15.06493 | 20274 ft | 378 kts | 299° |
| 2026-04-27 12:59 | 36.05744 | 15.03707 | 19757 ft | 371 kts | 299° |
| 2026-04-27 12:59 | 36.07032 | 15.00967 | 19216 ft | 367 kts | 299° |
| 2026-04-27 12:59 | 36.08310 | 14.98234 | 18712 ft | 368 kts | 299° |
| 2026-04-27 13:00 | 36.09581 | 14.95500 | 18171 ft | 366 kts | 299° |
| 2026-04-27 13:00 | 36.10719 | 14.92766 | 17588 ft | 359 kts | 291° |
| 2026-04-27 13:00 | 36.11390 | 14.89812 | 17030 ft | 356 kts | 284° |
| 2026-04-27 13:00 | 36.11971 | 14.86840 | 16469 ft | 355 kts | 284° |
| 2026-04-27 13:01 | 36.12550 | 14.83883 | 15919 ft | 351 kts | 284° |
| 2026-04-27 13:01 | 36.13119 | 14.80968 | 15388 ft | 347 kts | 284° |
| 2026-04-27 13:01 | 36.13686 | 14.78065 | 14859 ft | 347 kts | 284° |
| 2026-04-27 13:01 | 36.14249 | 14.75172 | 14334 ft | 344 kts | 284° |
| 2026-04-27 13:02 | 36.14804 | 14.72314 | 13803 ft | 340 kts | 284° |
| 2026-04-27 13:02 | 36.15353 | 14.69475 | 13225 ft | 339 kts | 284° |
| 2026-04-27 13:02 | 36.15897 | 14.66650 | 12658 ft | 336 kts | 284° |
| 2026-04-27 13:02 | 36.16433 | 14.63848 | 12109 ft | 333 kts | 284° |
| 2026-04-27 13:03 | 36.16958 | 14.61083 | 11562 ft | 326 kts | 284° |
| 2026-04-27 13:03 | 36.17468 | 14.58382 | 11031 ft | 319 kts | 284° |
| 2026-04-27 13:03 | 36.17963 | 14.55736 | 10499 ft | 312 kts | 284° |
| 2026-04-27 13:03 | 36.18445 | 14.53148 | 9978 ft | 306 kts | 284° |
| 2026-04-27 13:04 | 36.18918 | 14.50609 | 9409 ft | 300 kts | 283° |
| 2026-04-27 13:04 | 36.19388 | 14.48120 | 8847 ft | 294 kts | 283° |
| 2026-04-27 13:04 | 36.19857 | 14.45678 | 8296 ft | 289 kts | 284° |
| 2026-04-27 13:04 | 36.20324 | 14.43281 | 7755 ft | 284 kts | 284° |
| 2026-04-27 13:05 | 36.20790 | 14.40925 | 7222 ft | 279 kts | 284° |
| 2026-04-27 13:05 | 36.21013 | 14.38572 | 6689 ft | 274 kts | 265° |
| 2026-04-27 13:05 | 36.20454 | 14.36357 | 6204 ft | 269 kts | 240° |
| 2026-04-27 13:05 | 36.19204 | 14.34720 | 5875 ft | 258 kts | 215° |
| 2026-04-27 13:06 | 36.17720 | 14.33559 | 5573 ft | 247 kts | 213° |
| 2026-04-27 13:06 | 36.16309 | 14.32456 | 5406 ft | 233 kts | 213° |
| 2026-04-27 13:06 | 36.14981 | 14.31420 | 5341 ft | 219 kts | 213° |
| 2026-04-27 13:06 | 36.13720 | 14.30438 | 5255 ft | 214 kts | 213° |
| 2026-04-27 13:07 | 36.12452 | 14.29449 | 5192 ft | 216 kts | 213° |
| 2026-04-27 13:07 | 36.11109 | 14.28670 | 5087 ft | 215 kts | 192° |
| 2026-04-27 13:07 | 36.09676 | 14.28860 | 5693 ft | 208 kts | 160° |
| 2026-04-27 13:07 | 36.08390 | 14.29809 | 6057 ft | 226 kts | 150° |
| 2026-04-27 13:08 | 36.06975 | 14.30664 | 5712 ft | 226 kts | 167° |
| 2026-04-27 13:08 | 36.05454 | 14.31125 | 5330 ft | 226 kts | 168° |
| 2026-04-27 13:08 | 36.03916 | 14.31595 | 4895 ft | 230 kts | 165° |
| 2026-04-27 13:08 | 36.02404 | 14.32332 | 4447 ft | 236 kts | 157° |
| 2026-04-27 13:09 | 36.00894 | 14.33154 | 4031 ft | 239 kts | 158° |
| 2026-04-27 13:09 | 35.99359 | 14.33986 | 3531 ft | 241 kts | 158° |
| 2026-04-27 13:09 | 35.97837 | 14.34808 | 3222 ft | 236 kts | 158° |
| 2026-04-27 13:09 | 35.96363 | 14.35606 | 3060 ft | 226 kts | 158° |
| 2026-04-27 13:10 | 35.95019 | 14.36490 | 2940 ft | 214 kts | 147° |
| 2026-04-27 13:10 | 35.93877 | 14.37632 | 2580 ft | 207 kts | 139° |
| 2026-04-27 13:10 | 35.92879 | 14.38859 | 2311 ft | 199 kts | 135° |
| 2026-04-27 13:10 | 35.91936 | 14.40066 | 2023 ft | 192 kts | 136° |
| 2026-04-27 13:11 | 35.91016 | 14.41192 | 1786 ft | 180 kts | 135° |
| 2026-04-27 13:11 | 35.90191 | 14.42281 | 1525 ft | 166 kts | 133° |
| 2026-04-27 13:11 | 35.89422 | 14.43283 | 1269 ft | 157 kts | 134° |
| 2026-04-27 13:11 | 35.88655 | 14.44183 | 1142 ft | 152 kts | 137° |
| 2026-04-27 13:12 | 35.87891 | 14.45093 | 959 ft | 155 kts | 136° |
| 2026-04-27 13:12 | 35.87144 | 14.46032 | 720 ft | 150 kts | 134° |
| 2026-04-27 13:12 | 35.86434 | 14.46904 | 473 ft | 137 kts | 136° |
| 2026-04-27 13:12 | 35.85786 | 14.47716 | 315 ft | 129 kts | 136° |
| 2026-04-27 13:13 | 35.85173 | 14.48468 | 267 ft | 111 kts | 135° |
| 2026-04-27 13:13 | 35.84734 | 14.49003 | 260 ft | 66 kts | 132° |
| 2026-04-27 13:13 | 35.84531 | 14.49265 | 259 ft | 29 kts | 134° |
| 2026-04-27 13:13 | 35.84461 | 14.49438 | 258 ft | 15 kts | 112° |
| 2026-04-27 13:14 | 35.84470 | 14.49558 | 257 ft | 14 kts | 50° |
| 2026-04-27 13:14 | 35.84542 | 14.49547 | 257 ft | 10 kts | 329° |
| 2026-04-27 13:14 | 35.84595 | 14.49480 | 258 ft | 12 kts | 314° |
| 2026-04-27 13:14 | 35.84657 | 14.49405 | 258 ft | 13 kts | 316° |
| 2026-04-27 13:15 | 35.84715 | 14.49335 | 259 ft | 11 kts | 315° |
| 2026-04-27 13:15 | 35.84766 | 14.49323 | 259 ft | 7 kts | 27° |
| 2026-04-27 13:15 | 35.84806 | 14.49365 | 259 ft | 9 kts | 42° |
| 2026-04-27 13:15 | 35.84858 | 14.49396 | 259 ft | 9 kts | 2° |
| 2026-04-27 13:16 | 35.84916 | 14.49397 | 259 ft | 4 kts | 1° |
| 2026-04-27 13:16 | 35.84920 | 14.49397 | 259 ft | 0 kts | 1° |